createdAt,value
2023-06-11T00:00:31.082Z,17.68
2023-06-11T00:02:58.675Z,17.70
2023-06-11T00:05:28.881Z,17.62
2023-06-11T00:08:02.169Z,17.75
2023-06-11T00:10:29.605Z,17.65
2023-06-11T00:12:56.484Z,17.54
2023-06-11T00:15:23.539Z,17.40
2023-06-11T00:17:50.659Z,17.54
2023-06-11T00:20:17.700Z,17.69
2023-06-11T00:22:44.724Z,17.54
2023-06-11T00:25:13.022Z,17.71
2023-06-11T00:27:40.445Z,17.61
2023-06-11T00:30:08.073Z,17.84
2023-06-11T00:32:37.021Z,17.96
2023-06-11T00:35:10.783Z,17.95
2023-06-11T00:37:38.416Z,17.89
2023-06-11T00:40:07.467Z,17.80
2023-06-11T00:42:34.971Z,17.46
2023-06-11T00:45:04.958Z,17.66
2023-06-11T00:47:32.895Z,17.48
2023-06-11T00:50:01.582Z,17.57
2023-06-11T00:52:28.813Z,17.38
2023-06-11T00:54:58.638Z,17.46
2023-06-11T00:57:27.340Z,17.35
2023-06-11T00:59:55.414Z,17.42
2023-06-11T01:02:25.494Z,17.34
2023-06-11T01:04:58.934Z,17.34
2023-06-11T01:07:31.497Z,17.24
2023-06-11T01:10:03.070Z,17.19
2023-06-11T01:12:33.323Z,17.20
2023-06-11T01:15:00.795Z,17.05
2023-06-11T01:17:42.264Z,17.07
2023-06-11T01:20:17.773Z,16.90
2023-06-11T01:23:17.711Z,16.93
2023-06-11T01:25:55.949Z,16.88
2023-06-11T01:28:29.786Z,16.77
2023-06-11T01:31:00.432Z,16.77
2023-06-11T01:33:28.714Z,16.62
2023-06-11T01:35:59.477Z,16.37
2023-06-11T01:38:35.892Z,16.56
2023-06-11T01:41:03.681Z,16.49
2023-06-11T01:43:30.919Z,16.56
2023-06-11T01:45:59.890Z,16.50
2023-06-11T01:48:26.996Z,16.40
2023-06-11T01:50:53.988Z,16.48
2023-06-11T01:53:21.989Z,16.52
2023-06-11T01:55:49.156Z,16.34
2023-06-11T01:58:17.960Z,16.37
2023-06-11T02:00:45.061Z,16.33
2023-06-11T02:03:12.597Z,16.34
2023-06-11T02:05:39.680Z,16.31
2023-06-11T02:08:06.603Z,16.00
2023-06-11T02:10:33.728Z,15.98
2023-06-11T02:13:00.608Z,15.96
2023-06-11T02:15:27.553Z,16.04
2023-06-11T02:17:54.536Z,16.09
2023-06-11T02:20:21.634Z,16.04
2023-06-11T02:22:48.742Z,15.92
2023-06-11T02:25:15.850Z,16.07
2023-06-11T02:27:42.831Z,15.99
2023-06-11T02:30:10.216Z,16.08
2023-06-11T02:32:37.265Z,16.10
2023-06-11T02:35:04.686Z,16.09
2023-06-11T02:37:31.602Z,16.15
2023-06-11T02:39:58.684Z,16.08
2023-06-11T02:42:25.651Z,15.98
2023-06-11T02:44:52.743Z,16.15
2023-06-11T02:47:20.012Z,16.17
2023-06-11T02:49:47.014Z,16.26
2023-06-11T02:52:14.242Z,16.07
2023-06-11T02:54:41.336Z,16.12
2023-06-11T02:57:08.349Z,16.26
2023-06-11T02:59:35.724Z,16.10
2023-06-11T03:02:02.651Z,16.27
2023-06-11T03:04:29.571Z,16.33
2023-06-11T03:06:56.623Z,16.25
2023-06-11T03:09:25.455Z,16.31
2023-06-11T03:11:53.130Z,16.30
2023-06-11T03:14:22.241Z,16.43
2023-06-11T03:16:49.285Z,16.43
2023-06-11T03:19:16.420Z,16.43
2023-06-11T03:21:43.556Z,16.48
2023-06-11T03:24:12.105Z,16.53
2023-06-11T03:26:39.101Z,16.48
2023-06-11T03:29:06.323Z,16.59
2023-06-11T03:31:41.751Z,16.68
2023-06-11T03:34:09.176Z,16.61
2023-06-11T03:36:37.433Z,16.78
2023-06-11T03:39:08.872Z,16.81
2023-06-11T03:41:36.226Z,16.74
2023-06-11T03:44:04.016Z,16.91
2023-06-11T03:46:31.840Z,17.00
2023-06-11T03:48:58.966Z,16.96
2023-06-11T03:51:26.045Z,17.20
2023-06-11T03:53:53.554Z,17.29
2023-06-11T03:56:21.082Z,17.43
2023-06-11T03:58:48.385Z,17.51
2023-06-11T04:01:15.737Z,17.62
2023-06-11T04:03:42.798Z,17.66
2023-06-11T04:06:10.367Z,17.64
2023-06-11T04:08:37.357Z,17.74
2023-06-11T04:11:04.865Z,18.04
2023-06-11T04:13:31.982Z,18.06
2023-06-11T04:15:58.990Z,18.05
2023-06-11T04:18:25.938Z,18.31
2023-06-11T04:20:55.599Z,18.32
2023-06-11T04:23:22.953Z,18.45
2023-06-11T04:25:50.352Z,18.39
2023-06-11T04:28:19.272Z,18.62
2023-06-11T04:30:47.459Z,18.70
2023-06-11T04:33:17.023Z,18.74
2023-06-11T04:35:45.745Z,18.95
2023-06-11T04:38:12.678Z,19.02
2023-06-11T04:40:41.416Z,19.14
2023-06-11T04:43:09.965Z,19.15
2023-06-11T04:45:37.530Z,19.25
2023-06-11T04:48:05.595Z,19.37
2023-06-11T04:50:34.153Z,19.51
2023-06-11T04:53:04.463Z,19.58
2023-06-11T04:55:33.540Z,19.67
2023-06-11T04:58:02.929Z,19.83
2023-06-11T05:00:31.352Z,19.96
2023-06-11T05:03:03.574Z,19.88
2023-06-11T05:05:33.340Z,20.07
2023-06-11T05:08:01.173Z,19.99
2023-06-11T05:10:28.865Z,20.15
2023-06-11T05:12:55.843Z,20.39
2023-06-11T05:15:23.210Z,20.26
2023-06-11T05:17:53.247Z,20.55
2023-06-11T05:20:22.229Z,20.60
2023-06-11T05:22:50.789Z,20.46
2023-06-11T05:25:21.494Z,20.80
2023-06-11T05:27:53.156Z,20.84
2023-06-11T05:30:25.485Z,20.84
2023-06-11T05:32:56.642Z,20.86
2023-06-11T05:35:24.449Z,21.03
2023-06-11T05:37:51.590Z,21.00
2023-06-11T05:40:18.909Z,21.11
2023-06-11T05:42:46.185Z,21.01
2023-06-11T05:45:13.539Z,21.05
2023-06-11T05:47:41.178Z,21.15
2023-06-11T05:50:08.964Z,21.39
2023-06-11T05:52:36.390Z,21.50
2023-06-11T05:55:05.582Z,21.40
2023-06-11T05:57:32.624Z,21.61
2023-06-11T06:00:00.261Z,21.82
2023-06-11T06:02:30.038Z,21.80
2023-06-11T06:04:59.465Z,21.89
2023-06-11T06:07:26.818Z,22.00
2023-06-11T06:09:58.003Z,22.11
2023-06-11T06:12:25.583Z,22.21
2023-06-11T06:14:52.595Z,22.13
2023-06-11T06:17:19.764Z,22.21
2023-06-11T06:19:46.660Z,22.52
2023-06-11T06:22:15.169Z,22.69
2023-06-11T06:24:42.341Z,22.83
2023-06-11T06:27:09.311Z,22.91
2023-06-11T06:29:40.111Z,22.83
2023-06-11T06:32:09.227Z,22.85
2023-06-11T06:34:36.825Z,23.03
2023-06-11T06:37:04.303Z,23.07
2023-06-11T06:39:32.757Z,23.23
2023-06-11T06:41:59.877Z,23.11
2023-06-11T06:44:37.986Z,23.21
2023-06-11T06:47:05.595Z,23.31
2023-06-11T06:49:32.682Z,23.36
2023-06-11T06:51:59.598Z,23.33
2023-06-11T06:54:28.371Z,23.21
2023-06-11T06:56:56.185Z,23.71
2023-06-11T06:59:23.465Z,23.84
2023-06-11T07:01:51.049Z,23.78
2023-06-11T07:04:18.150Z,23.93
2023-06-11T07:06:45.611Z,23.99
2023-06-11T07:09:12.783Z,24.23
2023-06-11T07:11:42.109Z,24.34
2023-06-11T07:14:09.265Z,24.07
2023-06-11T07:16:39.760Z,24.23
2023-06-11T07:19:07.641Z,24.26
2023-06-11T07:21:37.223Z,24.28
2023-06-11T07:24:06.209Z,24.44
2023-06-11T07:26:33.684Z,24.61
2023-06-11T07:29:01.433Z,24.52
2023-06-11T07:31:28.799Z,24.51
2023-06-11T07:33:56.495Z,24.57
2023-06-11T07:36:23.544Z,24.86
2023-06-11T07:38:51.034Z,24.87
2023-06-11T07:41:19.163Z,24.56
2023-06-11T07:43:46.441Z,24.48
2023-06-11T07:46:18.659Z,24.63
2023-06-11T07:48:46.446Z,24.58
2023-06-11T07:51:19.192Z,24.83
2023-06-11T07:53:48.845Z,25.03
2023-06-11T07:56:16.000Z,25.05
2023-06-11T07:58:43.110Z,25.06
2023-06-11T08:01:10.248Z,24.66
2023-06-11T08:03:37.536Z,24.91
2023-06-11T08:06:04.827Z,24.98
2023-06-11T08:08:31.845Z,25.08
2023-06-11T08:10:59.251Z,25.14
2023-06-11T08:13:26.361Z,25.14
2023-06-11T08:15:54.265Z,25.09
2023-06-11T08:18:21.670Z,24.71
2023-06-11T08:20:48.964Z,25.07
2023-06-11T08:23:15.956Z,25.19
2023-06-11T08:25:43.439Z,25.27
2023-06-11T08:28:10.689Z,25.31
2023-06-11T08:30:37.638Z,25.45
2023-06-11T08:33:05.304Z,25.48
2023-06-11T08:35:32.346Z,25.66
2023-06-11T08:38:14.081Z,25.82
2023-06-11T08:40:42.812Z,25.88
2023-06-11T08:43:10.336Z,25.84
2023-06-11T08:45:38.040Z,26.01
2023-06-11T08:48:06.514Z,26.03
2023-06-11T08:50:33.520Z,26.11
2023-06-11T08:53:04.665Z,26.04
2023-06-11T08:55:32.167Z,25.93
2023-06-11T08:57:59.612Z,26.06
2023-06-11T09:00:26.534Z,26.01
2023-06-11T09:02:55.126Z,26.11
2023-06-11T09:05:22.643Z,26.05
2023-06-11T09:07:53.800Z,26.09
2023-06-11T09:10:21.644Z,26.05
2023-06-11T09:12:48.918Z,26.16
2023-06-11T09:15:17.270Z,26.24
2023-06-11T09:17:50.318Z,26.33
2023-06-11T09:20:18.210Z,26.46
2023-06-11T09:22:46.756Z,26.44
2023-06-11T09:25:20.632Z,26.40
2023-06-11T09:27:49.001Z,26.44
2023-06-11T09:30:18.437Z,26.62
2023-06-11T09:32:48.152Z,26.59
2023-06-11T09:35:20.176Z,26.43
2023-06-11T09:37:52.172Z,26.40
2023-06-11T09:40:21.807Z,26.44
2023-06-11T09:42:49.795Z,26.48
2023-06-11T09:45:20.645Z,26.90
2023-06-11T09:47:49.060Z,26.93
2023-06-11T09:50:23.309Z,26.92
2023-06-11T09:52:52.534Z,26.93
2023-06-11T09:55:19.760Z,26.95
2023-06-11T09:57:47.349Z,26.92
2023-06-11T10:00:15.122Z,26.96
2023-06-11T10:02:43.791Z,26.94
2023-06-11T10:05:14.180Z,26.88
2023-06-11T10:07:48.560Z,26.94
2023-06-11T10:10:23.046Z,26.87
2023-06-11T10:12:54.438Z,26.79
2023-06-11T10:16:01.017Z,27.11
2023-06-11T10:18:30.977Z,27.23
2023-06-11T10:21:06.557Z,27.27
2023-06-11T10:23:44.435Z,27.29
2023-06-11T10:26:11.756Z,27.22
2023-06-11T10:28:42.922Z,27.05
2023-06-11T10:31:10.065Z,27.40
2023-06-11T10:33:46.296Z,27.58
2023-06-11T10:36:24.053Z,27.69
2023-06-11T10:39:05.077Z,27.73
2023-06-11T10:41:32.325Z,27.68
2023-06-11T10:43:59.501Z,27.87
2023-06-11T10:46:26.839Z,27.90
2023-06-11T10:48:55.767Z,28.00
2023-06-11T10:51:22.998Z,27.72
2023-06-11T10:53:58.375Z,27.61
2023-06-11T10:56:27.491Z,27.56
2023-06-11T10:58:56.420Z,27.85
2023-06-11T11:01:23.800Z,28.17
2023-06-11T11:03:51.953Z,28.35
2023-06-11T11:06:29.515Z,28.12
2023-06-11T11:08:57.682Z,27.72
2023-06-11T11:11:25.629Z,27.69
2023-06-11T11:13:52.697Z,27.88
2023-06-11T11:16:22.875Z,27.59
2023-06-11T11:18:50.386Z,27.87
2023-06-11T11:21:20.135Z,27.80
2023-06-11T11:23:49.392Z,28.16
2023-06-11T11:26:18.795Z,28.52
2023-06-11T11:28:48.539Z,28.30
2023-06-11T11:31:18.923Z,27.97
2023-06-11T11:33:51.443Z,27.87
2023-06-11T11:36:24.045Z,27.48
2023-06-11T11:38:51.767Z,27.45
2023-06-11T11:41:23.866Z,27.62
2023-06-11T11:43:54.803Z,27.81
2023-06-11T11:46:24.888Z,28.25
2023-06-11T11:48:58.857Z,28.06
2023-06-11T11:51:26.813Z,27.91
2023-06-11T11:53:54.030Z,27.75
2023-06-11T11:56:21.157Z,27.81
2023-06-11T11:58:48.162Z,28.00
2023-06-11T12:01:24.056Z,28.18
2023-06-11T12:04:02.684Z,28.30
2023-06-11T12:06:33.027Z,28.53
2023-06-11T12:09:00.178Z,28.65
2023-06-11T12:11:27.234Z,28.67
2023-06-11T12:13:54.652Z,28.70
2023-06-11T12:16:23.895Z,28.66
2023-06-11T12:18:51.116Z,28.62
2023-06-11T12:21:18.326Z,28.64
2023-06-11T12:23:45.555Z,28.41
2023-06-11T12:26:12.597Z,28.60
2023-06-11T12:28:39.753Z,28.74
2023-06-11T12:31:08.004Z,28.46
2023-06-11T12:33:35.879Z,28.73
2023-06-11T12:36:02.915Z,28.60
2023-06-11T12:38:29.917Z,28.59
2023-06-11T12:40:57.249Z,28.53
2023-06-11T12:43:24.331Z,28.21
2023-06-11T12:45:53.768Z,27.92
2023-06-11T12:48:21.066Z,27.69
2023-06-11T12:50:48.296Z,27.61
2023-06-11T12:53:15.640Z,27.57
2023-06-11T12:55:42.786Z,27.23
2023-06-11T12:58:09.814Z,27.15
2023-06-11T13:00:37.086Z,27.19
2023-06-11T13:03:07.847Z,26.99
2023-06-11T13:05:34.833Z,26.48
2023-06-11T13:08:02.181Z,26.26
2023-06-11T13:10:29.449Z,26.33
2023-06-11T13:12:58.191Z,25.91
2023-06-11T13:15:25.854Z,25.83
2023-06-11T13:17:53.145Z,25.84
2023-06-11T13:20:22.353Z,25.53
2023-06-11T13:22:50.113Z,25.27
2023-06-11T13:25:17.689Z,25.21
2023-06-11T13:27:44.814Z,25.11
2023-06-11T13:30:12.802Z,24.72
2023-06-11T13:32:40.626Z,24.58
2023-06-11T13:35:08.194Z,24.48
2023-06-11T13:37:35.635Z,24.47
2023-06-11T13:40:02.862Z,24.47
2023-06-11T13:42:30.300Z,24.61
2023-06-11T13:44:57.200Z,24.38
2023-06-11T13:47:24.691Z,24.58
2023-06-11T13:49:52.056Z,24.60
2023-06-11T13:52:19.695Z,24.76
2023-06-11T13:54:46.970Z,25.05
2023-06-11T13:57:14.377Z,25.43
2023-06-11T13:59:44.550Z,25.95
2023-06-11T14:02:11.584Z,26.23
2023-06-11T14:04:38.485Z,26.38
2023-06-11T14:07:05.446Z,26.44
2023-06-11T14:09:32.623Z,26.63
2023-06-11T14:11:59.720Z,26.77
2023-06-11T14:14:31.070Z,27.01
2023-06-11T14:17:01.010Z,26.95
2023-06-11T14:19:29.235Z,26.99
2023-06-11T14:21:56.246Z,27.21
2023-06-11T14:24:24.949Z,27.56
2023-06-11T14:26:52.527Z,27.67
2023-06-11T14:29:19.759Z,27.58
2023-06-11T14:31:46.755Z,27.57
2023-06-11T14:34:13.629Z,27.60
2023-06-11T14:36:41.148Z,27.52
2023-06-11T14:39:08.352Z,27.73
2023-06-11T14:41:35.438Z,27.84
2023-06-11T14:44:02.525Z,28.01
2023-06-11T14:46:29.756Z,28.12
2023-06-11T14:48:56.811Z,27.99
2023-06-11T14:51:24.449Z,28.01
2023-06-11T14:53:51.482Z,28.25
2023-06-11T14:56:18.804Z,28.21
2023-06-11T14:58:46.168Z,28.44
2023-06-11T15:01:14.639Z,28.65
2023-06-11T15:03:41.674Z,28.52
2023-06-11T15:06:08.885Z,28.92
2023-06-11T15:08:36.112Z,28.96
2023-06-11T15:11:03.219Z,28.99
2023-06-11T15:13:30.220Z,28.96
2023-06-11T15:15:57.330Z,28.79
2023-06-11T15:18:24.607Z,28.60
2023-06-11T15:20:51.829Z,28.40
2023-06-11T15:23:20.513Z,28.33
2023-06-11T15:25:49.544Z,28.37
2023-06-11T15:28:20.625Z,28.79
2023-06-11T15:30:58.281Z,29.53
2023-06-11T15:33:25.256Z,30.18
2023-06-11T15:35:55.083Z,30.73
2023-06-11T15:38:28.400Z,31.29
2023-06-11T15:40:55.679Z,31.73
2023-06-11T15:43:22.940Z,31.89
2023-06-11T15:45:50.839Z,31.92
2023-06-11T15:48:17.982Z,31.99
2023-06-11T15:50:45.044Z,32.09
2023-06-11T15:53:12.030Z,32.09
2023-06-11T15:55:41.553Z,31.99
2023-06-11T15:58:09.207Z,31.98
2023-06-11T16:00:36.559Z,31.98
2023-06-11T16:03:03.801Z,31.98
2023-06-11T16:05:30.984Z,32.00
2023-06-11T16:07:57.901Z,31.85
2023-06-11T16:10:25.009Z,32.03
2023-06-11T16:12:51.993Z,31.78
2023-06-11T16:15:19.087Z,31.73
2023-06-11T16:17:48.013Z,31.79
2023-06-11T16:20:15.455Z,31.75
2023-06-11T16:22:43.017Z,31.56
2023-06-11T16:25:10.430Z,31.38
2023-06-11T16:27:37.738Z,31.36
2023-06-11T16:30:05.166Z,31.36
2023-06-11T16:32:32.304Z,30.99
2023-06-11T16:34:59.473Z,30.35
2023-06-11T16:37:27.159Z,29.49
2023-06-11T16:39:54.126Z,29.15
2023-06-11T16:42:33.692Z,28.65
2023-06-11T16:45:00.805Z,28.19
2023-06-11T16:47:27.867Z,27.92
2023-06-11T16:49:59.945Z,27.59
2023-06-11T16:52:29.028Z,27.39
2023-06-11T16:54:58.731Z,27.33
2023-06-11T16:57:25.670Z,26.92
2023-06-11T16:59:52.707Z,26.70
2023-06-11T17:02:20.557Z,26.27
2023-06-11T17:04:48.209Z,25.72
2023-06-11T17:07:15.297Z,25.30
2023-06-11T17:09:43.768Z,25.11
2023-06-11T17:12:13.867Z,24.63
2023-06-11T17:14:41.597Z,24.28
2023-06-11T17:17:08.811Z,24.12
2023-06-11T17:19:36.202Z,24.03
2023-06-11T17:22:03.184Z,23.71
2023-06-11T17:24:30.695Z,23.64
2023-06-11T17:26:57.768Z,23.56
2023-06-11T17:29:24.797Z,23.49
2023-06-11T17:31:51.867Z,23.20
2023-06-11T17:34:18.999Z,22.92
2023-06-11T17:36:46.207Z,22.96
2023-06-11T17:39:13.168Z,22.71
2023-06-11T17:41:40.367Z,22.68
2023-06-11T17:44:07.404Z,22.52
2023-06-11T17:46:34.404Z,22.29
2023-06-11T17:49:02.111Z,22.37
2023-06-11T17:51:29.216Z,22.24
2023-06-11T17:53:56.416Z,22.08
2023-06-11T17:56:23.583Z,21.86
2023-06-11T17:58:50.683Z,21.66
2023-06-11T18:01:18.541Z,21.60
2023-06-11T18:03:47.179Z,21.68
2023-06-11T18:06:16.199Z,21.56
2023-06-11T18:08:44.896Z,21.38
2023-06-11T18:11:11.774Z,21.43
2023-06-11T18:13:39.869Z,21.33
2023-06-11T18:16:06.984Z,21.27
2023-06-11T18:18:33.863Z,21.25
2023-06-11T18:21:01.141Z,21.19
2023-06-11T18:23:28.344Z,20.97
2023-06-11T18:25:55.652Z,21.09
2023-06-11T18:28:25.609Z,21.11
2023-06-11T18:30:54.579Z,21.14
2023-06-11T18:33:21.663Z,21.14
2023-06-11T18:35:48.559Z,21.15
2023-06-11T18:38:15.852Z,20.94
2023-06-11T18:40:42.929Z,20.82
2023-06-11T18:43:09.989Z,20.90
2023-06-11T18:45:37.103Z,20.94
2023-06-11T18:48:04.531Z,20.77
2023-06-11T18:50:31.620Z,20.86
2023-06-11T18:52:58.658Z,20.69
2023-06-11T18:55:27.073Z,20.80
2023-06-11T18:57:54.008Z,20.76
2023-06-11T19:00:21.417Z,20.70
2023-06-11T19:02:48.892Z,20.75
2023-06-11T19:05:16.509Z,20.60
2023-06-11T19:07:43.725Z,20.63
2023-06-11T19:10:14.331Z,20.63
2023-06-11T19:12:42.666Z,20.53
2023-06-11T19:15:10.118Z,20.54
2023-06-11T19:17:37.448Z,20.45
2023-06-11T19:20:04.897Z,20.47
2023-06-11T19:22:31.905Z,20.64
2023-06-11T19:25:02.133Z,20.66
2023-06-11T19:27:29.793Z,20.62
2023-06-11T19:30:02.609Z,20.75
2023-06-11T19:32:54.643Z,20.85
2023-06-11T19:35:22.284Z,20.89
2023-06-11T19:37:49.710Z,20.80
2023-06-11T19:40:16.688Z,20.56
2023-06-11T19:42:43.875Z,20.65
2023-06-11T19:45:15.390Z,20.55
2023-06-11T19:47:44.850Z,20.35
2023-06-11T19:50:12.567Z,20.34
2023-06-11T19:52:47.193Z,20.41
2023-06-11T19:55:18.505Z,20.25
2023-06-11T19:57:51.413Z,20.19
2023-06-11T20:00:18.958Z,20.24
2023-06-11T20:02:46.249Z,20.12
2023-06-11T20:05:13.504Z,20.17
2023-06-11T20:07:52.223Z,20.24
2023-06-11T20:10:19.198Z,20.21
2023-06-11T20:12:56.004Z,20.18
2023-06-11T20:15:33.441Z,20.13
2023-06-11T20:18:00.683Z,20.10
2023-06-11T20:20:27.665Z,19.97
2023-06-11T20:22:54.612Z,19.96
2023-06-11T20:25:22.144Z,20.19
2023-06-11T20:27:50.322Z,20.10
2023-06-11T20:30:17.699Z,20.38
2023-06-11T20:32:44.737Z,20.45
2023-06-11T20:35:14.939Z,20.43
2023-06-11T20:37:41.904Z,20.26
2023-06-11T20:40:09.663Z,20.12
2023-06-11T20:42:37.597Z,20.02
2023-06-11T20:45:05.038Z,19.88
2023-06-11T20:47:32.315Z,20.05
2023-06-11T20:49:59.547Z,19.95
2023-06-11T20:52:27.572Z,19.83
2023-06-11T20:54:54.693Z,19.76
2023-06-11T20:57:21.883Z,19.78
2023-06-11T20:59:48.924Z,19.69
2023-06-11T21:02:16.080Z,19.61
2023-06-11T21:04:43.090Z,19.58
2023-06-11T21:07:10.221Z,19.63
2023-06-11T21:09:37.229Z,19.59
2023-06-11T21:12:04.587Z,19.33
2023-06-11T21:14:31.877Z,19.53
2023-06-11T21:16:58.756Z,19.37
2023-06-11T21:19:25.956Z,19.52
2023-06-11T21:21:52.976Z,19.44
2023-06-11T21:24:20.547Z,19.49
2023-06-11T21:26:47.592Z,19.32
2023-06-11T21:29:14.831Z,19.41
2023-06-11T21:31:43.626Z,19.28
2023-06-11T21:34:10.752Z,19.23
2023-06-11T21:36:37.860Z,19.20
2023-06-11T21:39:05.098Z,19.20
2023-06-11T21:41:32.064Z,19.12
2023-06-11T21:43:59.255Z,19.02
2023-06-11T21:46:26.436Z,19.16
2023-06-11T21:48:53.752Z,19.01
2023-06-11T21:51:22.132Z,18.95
2023-06-11T21:53:48.998Z,18.86
2023-06-11T21:56:16.097Z,18.85
2023-06-11T21:58:43.145Z,18.91
2023-06-11T22:01:10.357Z,18.79
2023-06-11T22:03:37.560Z,18.77
2023-06-11T22:06:04.885Z,18.76
2023-06-11T22:08:32.095Z,18.76
2023-06-11T22:10:59.185Z,18.74
2023-06-11T22:13:26.159Z,18.51
2023-06-11T22:15:53.230Z,18.45
2023-06-11T22:18:22.852Z,18.26
2023-06-11T22:20:50.153Z,18.71
2023-06-11T22:23:17.349Z,18.75
2023-06-11T22:25:44.319Z,18.76
2023-06-11T22:28:11.512Z,18.49
2023-06-11T22:30:52.855Z,18.46
2023-06-11T22:33:23.664Z,18.53
2023-06-11T22:35:53.514Z,18.75
2023-06-11T22:38:20.629Z,18.84
2023-06-11T22:40:47.610Z,18.76
2023-06-11T22:43:14.644Z,18.68
2023-06-11T22:45:41.549Z,18.78
2023-06-11T22:48:08.758Z,18.63
2023-06-11T22:50:36.306Z,18.63
2023-06-11T22:53:03.612Z,18.64
2023-06-11T22:55:30.711Z,18.51
2023-06-11T22:57:57.633Z,18.41
2023-06-11T23:00:24.982Z,18.39
2023-06-11T23:02:52.770Z,18.16
2023-06-11T23:05:20.001Z,18.06
2023-06-11T23:07:47.675Z,18.13
2023-06-11T23:10:20.120Z,18.14
2023-06-11T23:12:47.572Z,18.05
2023-06-11T23:15:14.714Z,18.14
2023-06-11T23:17:42.578Z,18.15
2023-06-11T23:20:10.678Z,18.16
2023-06-11T23:22:38.415Z,18.17
2023-06-11T23:25:05.956Z,18.11
2023-06-11T23:27:34.948Z,18.16
2023-06-11T23:30:03.660Z,18.08
2023-06-11T23:32:31.329Z,18.06
2023-06-11T23:35:01.246Z,18.16
2023-06-11T23:37:29.406Z,18.19
2023-06-11T23:39:56.645Z,18.00
2023-06-11T23:42:23.762Z,18.02
2023-06-11T23:44:51.304Z,18.02
2023-06-11T23:47:18.367Z,17.99
2023-06-11T23:49:45.339Z,18.01
2023-06-11T23:52:12.269Z,17.85
2023-06-11T23:54:39.248Z,18.03
2023-06-11T23:57:06.465Z,17.60
2023-06-11T23:59:33.577Z,17.93
